sim
Sign-in with your pilot id or email,
or register
Callsign
Passwort

Schedule Details

Flight Number: DLH2006
Departure: Munich Airport (EDDM) at 07:30
Arrival: Dusseldorf International Airport (EDDL) at 08:40
Route: Lufthansa Passenger Schedule. Enter filed route here before submitting Pirep.

Weather Information
Getting current METAR information for EDDM 260050Z 26011KT 9999 -RA FEW013 BKN028 07/06 Q1000 NOSIG
Getting current METAR information for EDDL 260050Z 20016KT 7000 -RADZ FEW007 BKN010 10/09 Q0993 TEMPO BKN008

Schedule Frequency

Route Map